Cairo, IL

2:17 AM CST on December 06, 2019 (GMT -0600)
Cairo Regional

Weather History for KCIR - October, 2019

Change the Weather History Date:

Monday, October 14, 2019

  Actual Average Record
Temperature  
Mean Temperature 56 °F -  
Max Temperature 73 °F 70 °F 87 °F (1989)
Min Temperature 40 °F 49 °F 33 °F (2006)
Degree Days  
Heating Degree Days 9    
Growing Degree Days 6 (Base 50)    
Moisture  
Dew Point 46 °F    
Average Humidity 73    
Maximum Humidity 99    
Minimum Humidity 33    
Precipitation  
Precipitation 0.00 in - - ()
Sea Level Pressure  
Sea Level Pressure 30.08 in    
Wind  
Wind Speed 1 mph ()    
Max Wind Speed 7 mph    
Max Gust Speed -    
Visibility 9.8 miles    
Events      
Averages and records for this station are not official NWS values.
T = Trace of Precipitation, MM = Missing Value Source: Averaged Metar Reports

Daily Weather History Graph

Daily Weather History Graph

Search for Another Location

Airport or City:

Astronomy

Oct. 14, 2019 Rise Set
Actual Time 7:03 AM CDT 6:21 PM CDT
Civil Twilight 6:37 AM CDT 6:47 PM CDT
Nautical Twilight 6:07 AM CDT 7:17 PM CDT
Astronomical Twilight 5:37 AM CDT 7:48 PM CDT
Moon 7:12 PM CDT (10/14) 7:35 AM CDT (10/14)
Length of Visible Light 12h 10m
Length of Day
11h 18m
Full, 99% of the Moon is Illuminated
Oct 14
Full
Oct 21
Last Quarter
Oct 27
New
Nov 4
First Quarter
Nov 12
Full

Hourly Weather History & Observations

Time (CDT) Temp. Dew Point Humidity Pressure Visibility Wind Dir Wind Speed Gust Speed Precip Events Conditions
12:15 AM 44.8 °F 42.8 °F 93% 30.05 in 10.0 mi Calm Calm - N/A   Clear
12:35 AM 44.6 °F 41.9 °F 90% 30.05 in 10.0 mi Calm Calm - N/A   Clear
12:55 AM 44.4 °F 42.1 °F 91% 30.05 in 10.0 mi Calm Calm - N/A   Clear
1:15 AM 46.2 °F 42.8 °F 88% 30.05 in 10.0 mi Calm Calm - N/A   Clear
1:35 AM 47.1 °F 43.0 °F 86% 30.05 in 10.0 mi Calm Calm - N/A   Clear
1:55 AM 44.8 °F 41.7 °F 89% 30.05 in 10.0 mi Calm Calm - N/A   Clear
2:15 AM 45.1 °F 41.9 °F 88% 30.05 in 10.0 mi Calm Calm - N/A   Clear
2:35 AM 48.9 °F 43.2 °F 80% 30.05 in 10.0 mi Calm Calm - N/A   Clear
2:55 AM 47.8 °F 43.0 °F 83% 30.05 in 10.0 mi SW 3.5 mph - N/A   Clear
3:15 AM 49.1 °F 43.3 °F 81% 30.05 in 10.0 mi SSW 4.6 mph - N/A   Clear
3:35 AM 49.1 °F 43.7 °F 82% 30.06 in 10.0 mi SSW 3.5 mph - N/A   Clear
3:55 AM 50.0 °F 43.5 °F 78% 30.06 in 10.0 mi Calm Calm - N/A   Clear
4:15 AM 48.2 °F 43.0 °F 82% 30.06 in 10.0 mi Calm Calm - N/A   Clear
4:35 AM 46.6 °F 43.0 °F 87% 30.08 in 10.0 mi Calm Calm - N/A   Clear
4:55 AM 47.7 °F 43.5 °F 86% 30.08 in 10.0 mi Calm Calm - N/A   Clear
5:15 AM 43.5 °F 40.8 °F 90% 30.08 in 10.0 mi Calm Calm - N/A   Clear
5:35 AM 43.2 °F 41.7 °F 95% 30.09 in 10.0 mi Calm Calm - N/A   Clear
5:55 AM 46.8 °F 44.2 °F 91% 30.09 in 10.0 mi SSW 6.9 mph - N/A   Clear
6:15 AM 46.4 °F 43.7 °F 90% 30.09 in 10.0 mi Calm Calm - N/A   Clear
6:35 AM 43.5 °F 42.8 °F 97% 30.10 in 10.0 mi Calm Calm - N/A   Clear
6:55 AM 43.9 °F 42.8 °F 96% 30.10 in 10.0 mi Calm Calm - N/A   Clear
7:15 AM 40.5 °F 39.9 °F 98% 30.10 in 10.0 mi Calm Calm - N/A   Clear
7:35 AM 41.9 °F 41.4 °F 98% 30.11 in 10.0 mi Calm Calm - N/A   Clear
7:55 AM 45.7 °F 45.3 °F 99% 30.12 in 10.0 mi Calm Calm - N/A   Clear
8:15 AM 48.4 °F 46.6 °F 93% 30.13 in 10.0 mi Calm Calm - N/A   Clear
8:55 AM 50.9 °F 47.3 °F 87% 30.15 in 10.0 mi WSW 4.6 mph - N/A   Clear
9:15 AM 52.2 °F 47.3 °F 83% 30.15 in 10.0 mi SW 4.6 mph - N/A   Clear
9:35 AM 53.6 °F 48.6 °F 83% 30.15 in 10.0 mi Calm Calm - N/A   Clear
9:55 AM 54.3 °F 46.4 °F 75% 30.14 in 10.0 mi Calm Calm - N/A   Clear
10:15 AM 56.7 °F 46.4 °F 69% 30.13 in 10.0 mi Calm Calm - N/A   Clear
10:35 AM 59.0 °F 47.8 °F 66% 30.13 in 10.0 mi NE 4.6 mph - N/A   Clear
10:55 AM 60.6 °F 47.5 °F 62% 30.13 in 10.0 mi NNE 3.5 mph - N/A   Clear
11:15 AM 62.2 °F 48.6 °F 61% 30.13 in 10.0 mi East 3.5 mph - N/A   Clear
11:35 AM 63.0 °F 46.0 °F 54% 30.13 in 10.0 mi Calm Calm - N/A   Clear
11:55 AM 65.7 °F 48.0 °F 53% 30.13 in 10.0 mi Calm Calm - N/A   Clear
12:15 PM 66.4 °F 46.4 °F 49% 30.13 in 10.0 mi Calm Calm - N/A   Clear
12:35 PM 67.3 °F 46.9 °F 48% 30.11 in 10.0 mi Calm Calm - N/A   Clear
12:55 PM 69.1 °F 46.9 °F 45% 30.11 in 10.0 mi Calm Calm - N/A   Clear
1:15 PM 69.3 °F 46.6 °F 44% 30.10 in 10.0 mi Calm Calm - N/A   Clear
1:35 PM 70.7 °F 47.8 °F 44% 30.09 in 10.0 mi Calm Calm - N/A   Clear
1:55 PM 70.2 °F 47.5 °F 44% 30.07 in 10.0 mi Calm Calm - N/A   Clear
2:15 PM 70.9 °F 46.9 °F 42% 30.07 in 10.0 mi Calm Calm - N/A   Clear
2:35 PM 71.1 °F 46.6 °F 42% 30.06 in 10.0 mi Calm Calm - N/A   Clear
2:55 PM 71.6 °F 45.9 °F 40% 30.06 in 10.0 mi SSW 3.5 mph - N/A   Clear
3:15 PM 72.3 °F 45.7 °F 39% 30.07 in 10.0 mi SSW 3.5 mph - N/A   Clear
3:35 PM 71.6 °F 44.1 °F 37% 30.06 in 10.0 mi Calm Calm - N/A   Clear
3:55 PM 72.5 °F 42.1 °F 33% 30.06 in 10.0 mi ESE 3.5 mph - N/A   Clear
4:15 PM 72.5 °F 41.7 °F 33% 30.06 in 7.0 mi Calm Calm - N/A   Clear
4:35 PM 72.7 °F 41.9 °F 33% 30.05 in 10.0 mi Calm Calm - N/A   Clear
4:55 PM 72.9 °F 43.3 °F 35% 30.05 in 10.0 mi ESE 3.5 mph - N/A   Clear
5:15 PM 72.5 °F 44.6 °F 37% 30.05 in 10.0 mi ESE 3.5 mph - N/A   Clear
5:35 PM 71.1 °F 46.4 °F 41% 30.05 in 10.0 mi SE 3.5 mph - N/A   Clear
5:55 PM 66.4 °F 49.3 °F 54% 30.05 in 10.0 mi Calm Calm - N/A   Clear
6:15 PM 62.6 °F 51.1 °F 66% 30.04 in 10.0 mi Calm Calm - N/A   Clear
6:35 PM 59.0 °F 52.3 °F 79% 30.04 in 10.0 mi Calm Calm - N/A   Clear
6:55 PM 59.2 °F 51.4 °F 75% 30.04 in 10.0 mi Calm Calm - N/A   Clear
7:15 PM 62.8 °F 49.6 °F 62% 30.05 in 10.0 mi SSE 4.6 mph - N/A   Clear
7:35 PM 59.7 °F 50.9 °F 73% 30.05 in 10.0 mi SSE 3.5 mph - N/A   Clear
8:15 PM 54.7 °F 50.5 °F 86% 30.05 in 7.0 mi Calm Calm - N/A   Clear
8:35 PM 54.0 °F 50.7 °F 89% 30.05 in 10.0 mi Calm Calm - N/A   Clear
8:55 PM 54.1 °F 50.4 °F 87% 30.06 in 10.0 mi Calm Calm - N/A   Clear
9:15 PM 53.6 °F 51.3 °F 92% 30.06 in 7.0 mi Calm Calm - N/A   Clear
9:35 PM 52.2 °F 49.8 °F 92% 30.06 in 10.0 mi Calm Calm - N/A   Clear
9:55 PM 51.3 °F 49.5 °F 94% 30.06 in 10.0 mi Calm Calm - N/A   Clear
10:15 PM 51.1 °F 50.0 °F 96% 30.06 in 10.0 mi Calm Calm - N/A   Clear
10:35 PM 51.6 °F 50.0 °F 94% 30.06 in 10.0 mi Calm Calm - N/A   Clear
10:55 PM 50.4 °F 49.5 °F 97% 30.06 in 10.0 mi Calm Calm - N/A   Clear
11:15 PM 50.0 °F 49.1 °F 97% 30.06 in 10.0 mi Calm Calm - N/A   Clear
11:35 PM 49.1 °F 48.4 °F 97% 30.06 in 7.0 mi Calm Calm - N/A   Clear
11:55 PM 47.8 °F 47.5 °F 99% 30.05 in 10.0 mi Calm Calm - N/A   Clear